sensor_id;sensor_type;location;lat;lon;timestamp;P1;durP1;ratioP1;P2;durP2;ratioP2
71836;SDS011;59686;51.716;7.016;2022-10-18T00:00:25;5.75;;;4.70;;
71836;SDS011;59686;51.716;7.016;2022-10-18T00:02:51;5.55;;;4.38;;
71836;SDS011;59686;51.716;7.016;2022-10-18T00:05:16;5.22;;;4.72;;
71836;SDS011;59686;51.716;7.016;2022-10-18T00:07:42;4.68;;;4.28;;
71836;SDS011;59686;51.716;7.016;2022-10-18T00:10:08;4.90;;;4.38;;
71836;SDS011;59686;51.716;7.016;2022-10-18T00:12:34;5.57;;;4.65;;
71836;SDS011;59686;51.716;7.016;2022-10-18T00:15:01;4.75;;;4.35;;
71836;SDS011;59686;51.716;7.016;2022-10-18T00:17:28;5.22;;;4.68;;
71836;SDS011;59686;51.716;7.016;2022-10-18T00:19:54;4.70;;;4.30;;
71836;SDS011;59686;51.716;7.016;2022-10-18T00:22:19;5.93;;;4.45;;
71836;SDS011;59686;51.716;7.016;2022-10-18T00:24:45;5.35;;;4.85;;
71836;SDS011;59686;51.716;7.016;2022-10-18T00:27:11;5.45;;;4.45;;
71836;SDS011;59686;51.716;7.016;2022-10-18T00:29:45;4.55;;;4.13;;
71836;SDS011;59686;51.716;7.016;2022-10-18T00:32:10;5.05;;;4.55;;
71836;SDS011;59686;51.716;7.016;2022-10-18T00:34:37;5.00;;;4.53;;
71836;SDS011;59686;51.716;7.016;2022-10-18T00:37:04;4.88;;;4.40;;
71836;SDS011;59686;51.716;7.016;2022-10-18T00:39:30;4.43;;;4.03;;
71836;SDS011;59686;51.716;7.016;2022-10-18T00:41:56;4.65;;;4.18;;
71836;SDS011;59686;51.716;7.016;2022-10-18T00:46:50;4.95;;;4.45;;
71836;SDS011;59686;51.716;7.016;2022-10-18T00:49:20;4.78;;;4.32;;
71836;SDS011;59686;51.716;7.016;2022-10-18T00:52:00;4.85;;;4.28;;
71836;SDS011;59686;51.716;7.016;2022-10-18T00:54:32;4.95;;;4.25;;
71836;SDS011;59686;51.716;7.016;2022-10-18T00:57:02;4.50;;;4.10;;
71836;SDS011;59686;51.716;7.016;2022-10-18T00:59:28;4.80;;;3.97;;
71836;SDS011;59686;51.716;7.016;2022-10-18T01:01:54;4.47;;;3.95;;
71836;SDS011;59686;51.716;7.016;2022-10-18T01:04:20;4.75;;;4.25;;
71836;SDS011;59686;51.716;7.016;2022-10-18T01:07:04;4.28;;;3.88;;
71836;SDS011;59686;51.716;7.016;2022-10-18T01:10:05;5.30;;;4.22;;
71836;SDS011;59686;51.716;7.016;2022-10-18T01:13:07;5.00;;;3.67;;
71836;SDS011;59686;51.716;7.016;2022-10-18T01:31:46;4.28;;;3.65;;
71836;SDS011;59686;51.716;7.016;2022-10-18T01:34:35;3.95;;;3.60;;
71836;SDS011;59686;51.716;7.016;2022-10-18T01:37:05;4.32;;;3.92;;
71836;SDS011;59686;51.716;7.016;2022-10-18T01:39:36;4.28;;;3.80;;
71836;SDS011;59686;51.716;7.016;2022-10-18T01:42:06;5.22;;;3.88;;
71836;SDS011;59686;51.716;7.016;2022-10-18T01:44:34;4.15;;;3.75;;
71836;SDS011;59686;51.716;7.016;2022-10-18T01:47:03;5.57;;;3.90;;
71836;SDS011;59686;51.716;7.016;2022-10-18T01:49:33;3.78;;;3.47;;
71836;SDS011;59686;51.716;7.016;2022-10-18T01:51:59;4.32;;;3.25;;
71836;SDS011;59686;51.716;7.016;2022-10-18T01:54:29;5.57;;;4.00;;
71836;SDS011;59686;51.716;7.016;2022-10-18T02:00:03;3.92;;;3.60;;
71836;SDS011;59686;51.716;7.016;2022-10-18T02:02:56;4.22;;;3.47;;
71836;SDS011;59686;51.716;7.016;2022-10-18T02:05:47;4.82;;;3.60;;
71836;SDS011;59686;51.716;7.016;2022-10-18T02:13:31;3.97;;;3.60;;
71836;SDS011;59686;51.716;7.016;2022-10-18T02:16:02;4.60;;;4.03;;
71836;SDS011;59686;51.716;7.016;2022-10-18T02:18:39;5.05;;;3.65;;
71836;SDS011;59686;51.716;7.016;2022-10-18T02:21:12;3.90;;;3.45;;
71836;SDS011;59686;51.716;7.016;2022-10-18T02:23:42;4.15;;;3.75;;
71836;SDS011;59686;51.716;7.016;2022-10-18T02:26:10;5.95;;;3.78;;
71836;SDS011;59686;51.716;7.016;2022-10-18T02:28:36;4.15;;;3.75;;
71836;SDS011;59686;51.716;7.016;2022-10-18T02:36:28;4.40;;;3.83;;
71836;SDS011;59686;51.716;7.016;2022-10-18T02:39:00;4.05;;;3.22;;
71836;SDS011;59686;51.716;7.016;2022-10-18T02:41:30;4.20;;;3.50;;
71836;SDS011;59686;51.716;7.016;2022-10-18T02:43:56;3.97;;;3.58;;
71836;SDS011;59686;51.716;7.016;2022-10-18T02:46:22;4.60;;;3.58;;
71836;SDS011;59686;51.716;7.016;2022-10-18T02:48:47;3.88;;;3.50;;
71836;SDS011;59686;51.716;7.016;2022-10-18T02:51:13;4.80;;;3.55;;
71836;SDS011;59686;51.716;7.016;2022-10-18T02:53:39;4.15;;;3.78;;
71836;SDS011;59686;51.716;7.016;2022-10-18T02:56:05;4.45;;;3.72;;
71836;SDS011;59686;51.716;7.016;2022-10-18T02:58:31;4.03;;;3.47;;
71836;SDS011;59686;51.716;7.016;2022-10-18T03:00:56;5.13;;;3.22;;
71836;SDS011;59686;51.716;7.016;2022-10-18T03:03:22;4.28;;;3.80;;
71836;SDS011;59686;51.716;7.016;2022-10-18T03:05:49;4.95;;;3.47;;
71836;SDS011;59686;51.716;7.016;2022-10-18T03:08:15;3.90;;;3.38;;
71836;SDS011;59686;51.716;7.016;2022-10-18T03:10:42;3.83;;;3.53;;
71836;SDS011;59686;51.716;7.016;2022-10-18T03:13:09;3.95;;;3.47;;
71836;SDS011;59686;51.716;7.016;2022-10-18T03:15:34;4.05;;;3.25;;
71836;SDS011;59686;51.716;7.016;2022-10-18T03:18:00;3.78;;;3.45;;
71836;SDS011;59686;51.716;7.016;2022-10-18T03:20:25;4.18;;;3.28;;
71836;SDS011;59686;51.716;7.016;2022-10-18T03:22:51;3.90;;;3.45;;
71836;SDS011;59686;51.716;7.016;2022-10-18T03:25:17;4.18;;;3.67;;
71836;SDS011;59686;51.716;7.016;2022-10-18T03:27:42;4.22;;;3.35;;
71836;SDS011;59686;51.716;7.016;2022-10-18T03:30:08;5.72;;;3.75;;
71836;SDS011;59686;51.716;7.016;2022-10-18T03:32:36;3.75;;;3.35;;
71836;SDS011;59686;51.716;7.016;2022-10-18T03:35:03;3.97;;;3.58;;
71836;SDS011;59686;51.716;7.016;2022-10-18T03:37:29;3.95;;;3.55;;
71836;SDS011;59686;51.716;7.016;2022-10-18T03:39:55;3.83;;;3.28;;
71836;SDS011;59686;51.716;7.016;2022-10-18T03:42:21;4.65;;;3.40;;
71836;SDS011;59686;51.716;7.016;2022-10-18T03:44:47;3.40;;;3.10;;
71836;SDS011;59686;51.716;7.016;2022-10-18T03:47:12;3.20;;;2.90;;
71836;SDS011;59686;51.716;7.016;2022-10-18T03:49:38;3.78;;;3.25;;
71836;SDS011;59686;51.716;7.016;2022-10-18T03:52:04;4.18;;;3.40;;
71836;SDS011;59686;51.716;7.016;2022-10-18T03:54:29;3.78;;;3.30;;
71836;SDS011;59686;51.716;7.016;2022-10-18T03:56:55;4.50;;;3.42;;
71836;SDS011;59686;51.716;7.016;2022-10-18T03:59:21;4.22;;;3.50;;
71836;SDS011;59686;51.716;7.016;2022-10-18T04:01:47;3.67;;;3.25;;
71836;SDS011;59686;51.716;7.016;2022-10-18T04:06:58;3.80;;;3.30;;
71836;SDS011;59686;51.716;7.016;2022-10-18T04:09:23;3.95;;;3.63;;
71836;SDS011;59686;51.716;7.016;2022-10-18T04:11:49;4.00;;;3.60;;
71836;SDS011;59686;51.716;7.016;2022-10-18T04:14:15;4.78;;;3.60;;
71836;SDS011;59686;51.716;7.016;2022-10-18T04:16:41;3.80;;;3.30;;
71836;SDS011;59686;51.716;7.016;2022-10-18T04:19:07;4.28;;;3.80;;
71836;SDS011;59686;51.716;7.016;2022-10-18T04:21:32;3.75;;;3.35;;
71836;SDS011;59686;51.716;7.016;2022-10-18T04:23:58;3.95;;;3.28;;
71836;SDS011;59686;51.716;7.016;2022-10-18T04:26:24;4.03;;;3.45;;
71836;SDS011;59686;51.716;7.016;2022-10-18T04:28:49;3.92;;;3.35;;
71836;SDS011;59686;51.716;7.016;2022-10-18T04:31:15;4.57;;;3.58;;
71836;SDS011;59686;51.716;7.016;2022-10-18T04:33:41;4.90;;;3.35;;
71836;SDS011;59686;51.716;7.016;2022-10-18T04:36:06;4.47;;;3.22;;
71836;SDS011;59686;51.716;7.016;2022-10-18T04:38:32;3.90;;;3.50;;
71836;SDS011;59686;51.716;7.016;2022-10-18T04:40:58;4.60;;;3.45;;
71836;SDS011;59686;51.716;7.016;2022-10-18T04:43:24;4.20;;;3.50;;
71836;SDS011;59686;51.716;7.016;2022-10-18T04:45:50;3.80;;;3.33;;
71836;SDS011;59686;51.716;7.016;2022-10-18T04:48:18;3.60;;;3.30;;
71836;SDS011;59686;51.716;7.016;2022-10-18T04:50:46;3.63;;;3.33;;
71836;SDS011;59686;51.716;7.016;2022-10-18T04:53:14;4.10;;;3.70;;
71836;SDS011;59686;51.716;7.016;2022-10-18T04:55:43;4.35;;;3.95;;
71836;SDS011;59686;51.716;7.016;2022-10-18T04:58:13;4.35;;;3.40;;
71836;SDS011;59686;51.716;7.016;2022-10-18T05:00:40;4.25;;;3.85;;
71836;SDS011;59686;51.716;7.016;2022-10-18T05:03:06;3.88;;;3.47;;
71836;SDS011;59686;51.716;7.016;2022-10-18T05:05:32;3.83;;;3.45;;
71836;SDS011;59686;51.716;7.016;2022-10-18T05:07:58;4.13;;;3.72;;
71836;SDS011;59686;51.716;7.016;2022-10-18T05:10:24;4.78;;;3.97;;
71836;SDS011;59686;51.716;7.016;2022-10-18T05:12:49;5.10;;;3.70;;
71836;SDS011;59686;51.716;7.016;2022-10-18T05:15:15;5.18;;;3.90;;
71836;SDS011;59686;51.716;7.016;2022-10-18T05:17:40;4.88;;;3.70;;
71836;SDS011;59686;51.716;7.016;2022-10-18T05:20:06;4.47;;;3.72;;
71836;SDS011;59686;51.716;7.016;2022-10-18T05:22:32;4.28;;;3.50;;
71836;SDS011;59686;51.716;7.016;2022-10-18T05:24:58;4.35;;;3.95;;
71836;SDS011;59686;51.716;7.016;2022-10-18T05:27:23;5.32;;;3.47;;
71836;SDS011;59686;51.716;7.016;2022-10-18T05:29:49;4.18;;;3.75;;
71836;SDS011;59686;51.716;7.016;2022-10-18T05:32:15;5.50;;;3.50;;
71836;SDS011;59686;51.716;7.016;2022-10-18T05:34:40;4.03;;;3.63;;
71836;SDS011;59686;51.716;7.016;2022-10-18T05:37:06;5.60;;;4.43;;
71836;SDS011;59686;51.716;7.016;2022-10-18T05:39:32;5.03;;;3.85;;
71836;SDS011;59686;51.716;7.016;2022-10-18T05:41:57;3.88;;;3.47;;
71836;SDS011;59686;51.716;7.016;2022-10-18T05:44:23;4.47;;;3.60;;
71836;SDS011;59686;51.716;7.016;2022-10-18T05:46:49;4.57;;;3.95;;
71836;SDS011;59686;51.716;7.016;2022-10-18T05:49:15;5.00;;;4.30;;
71836;SDS011;59686;51.716;7.016;2022-10-18T05:51:41;5.53;;;4.18;;
71836;SDS011;59686;51.716;7.016;2022-10-18T05:54:06;5.38;;;3.47;;
71836;SDS011;59686;51.716;7.016;2022-10-18T05:56:33;5.20;;;4.40;;
71836;SDS011;59686;51.716;7.016;2022-10-18T05:58:59;4.80;;;3.97;;
71836;SDS011;59686;51.716;7.016;2022-10-18T06:01:24;5.05;;;4.28;;
71836;SDS011;59686;51.716;7.016;2022-10-18T06:03:50;4.80;;;3.78;;
71836;SDS011;59686;51.716;7.016;2022-10-18T06:06:16;4.22;;;3.70;;
71836;SDS011;59686;51.716;7.016;2022-10-18T06:08:42;5.63;;;3.75;;
71836;SDS011;59686;51.716;7.016;2022-10-18T06:11:09;4.70;;;3.67;;
71836;SDS011;59686;51.716;7.016;2022-10-18T06:13:54;5.03;;;4.13;;
71836;SDS011;59686;51.716;7.016;2022-10-18T06:16:22;4.35;;;3.45;;
71836;SDS011;59686;51.716;7.016;2022-10-18T06:18:49;5.28;;;3.60;;
71836;SDS011;59686;51.716;7.016;2022-10-18T06:21:19;5.25;;;3.97;;
71836;SDS011;59686;51.716;7.016;2022-10-18T06:23:53;4.00;;;3.60;;
71836;SDS011;59686;51.716;7.016;2022-10-18T06:26:21;4.05;;;3.63;;
71836;SDS011;59686;51.716;7.016;2022-10-18T06:28:47;4.20;;;3.80;;
71836;SDS011;59686;51.716;7.016;2022-10-18T06:31:13;5.18;;;3.78;;
71836;SDS011;59686;51.716;7.016;2022-10-18T06:33:39;6.53;;;4.43;;
71836;SDS011;59686;51.716;7.016;2022-10-18T06:36:06;4.43;;;4.03;;
71836;SDS011;59686;51.716;7.016;2022-10-18T06:38:35;5.65;;;4.38;;
71836;SDS011;59686;51.716;7.016;2022-10-18T06:41:01;4.97;;;4.35;;
71836;SDS011;59686;51.716;7.016;2022-10-18T06:46:27;4.78;;;4.35;;
71836;SDS011;59686;51.716;7.016;2022-10-18T06:48:53;6.60;;;4.18;;
71836;SDS011;59686;51.716;7.016;2022-10-18T06:51:19;5.40;;;4.50;;
71836;SDS011;59686;51.716;7.016;2022-10-18T06:53:44;5.65;;;4.40;;
71836;SDS011;59686;51.716;7.016;2022-10-18T06:56:10;6.82;;;4.70;;
71836;SDS011;59686;51.716;7.016;2022-10-18T06:58:37;5.32;;;4.10;;
71836;SDS011;59686;51.716;7.016;2022-10-18T07:01:10;6.40;;;4.60;;
71836;SDS011;59686;51.716;7.016;2022-10-18T07:03:37;6.97;;;4.75;;
71836;SDS011;59686;51.716;7.016;2022-10-18T07:06:05;7.03;;;5.32;;
71836;SDS011;59686;51.716;7.016;2022-10-18T07:08:33;5.78;;;4.75;;
71836;SDS011;59686;51.716;7.016;2022-10-18T07:10:59;6.03;;;4.88;;
71836;SDS011;59686;51.716;7.016;2022-10-18T07:13:26;8.05;;;5.15;;
71836;SDS011;59686;51.716;7.016;2022-10-18T07:16:01;5.80;;;4.72;;
71836;SDS011;59686;51.716;7.016;2022-10-18T07:18:34;6.13;;;4.70;;
71836;SDS011;59686;51.716;7.016;2022-10-18T07:21:02;6.72;;;5.10;;
71836;SDS011;59686;51.716;7.016;2022-10-18T07:23:30;7.47;;;6.00;;
71836;SDS011;59686;51.716;7.016;2022-10-18T07:25:57;7.82;;;5.50;;
71836;SDS011;59686;51.716;7.016;2022-10-18T07:28:23;8.10;;;5.60;;
71836;SDS011;59686;51.716;7.016;2022-10-18T07:33:20;9.88;;;6.53;;
71836;SDS011;59686;51.716;7.016;2022-10-18T07:35:47;9.07;;;6.70;;
71836;SDS011;59686;51.716;7.016;2022-10-18T07:38:13;10.88;;;7.25;;
71836;SDS011;59686;51.716;7.016;2022-10-18T07:40:38;11.52;;;7.53;;
71836;SDS011;59686;51.716;7.016;2022-10-18T07:43:04;12.25;;;7.93;;
71836;SDS011;59686;51.716;7.016;2022-10-18T07:45:29;13.40;;;8.60;;
71836;SDS011;59686;51.716;7.016;2022-10-18T07:47:56;16.60;;;9.80;;
71836;SDS011;59686;51.716;7.016;2022-10-18T07:50:22;16.23;;;9.68;;
71836;SDS011;59686;51.716;7.016;2022-10-18T07:52:48;16.27;;;9.98;;
71836;SDS011;59686;51.716;7.016;2022-10-18T07:55:14;12.75;;;9.30;;
71836;SDS011;59686;51.716;7.016;2022-10-18T07:57:40;12.50;;;9.23;;
71836;SDS011;59686;51.716;7.016;2022-10-18T08:00:06;13.55;;;9.52;;
71836;SDS011;59686;51.716;7.016;2022-10-18T08:02:33;13.77;;;9.82;;
71836;SDS011;59686;51.716;7.016;2022-10-18T08:04:59;13.30;;;9.82;;
71836;SDS011;59686;51.716;7.016;2022-10-18T08:07:24;13.20;;;10.07;;
71836;SDS011;59686;51.716;7.016;2022-10-18T08:09:50;13.60;;;10.30;;
71836;SDS011;59686;51.716;7.016;2022-10-18T08:12:16;15.68;;;10.27;;
71836;SDS011;59686;51.716;7.016;2022-10-18T08:14:41;17.48;;;12.23;;
71836;SDS011;59686;51.716;7.016;2022-10-18T08:17:07;15.70;;;10.95;;
71836;SDS011;59686;51.716;7.016;2022-10-18T08:19:33;14.85;;;10.63;;
71836;SDS011;59686;51.716;7.016;2022-10-18T08:21:58;13.40;;;9.88;;
71836;SDS011;59686;51.716;7.016;2022-10-18T08:24:24;15.13;;;9.65;;
71836;SDS011;59686;51.716;7.016;2022-10-18T08:26:50;16.33;;;10.57;;
71836;SDS011;59686;51.716;7.016;2022-10-18T08:29:15;17.73;;;10.98;;
71836;SDS011;59686;51.716;7.016;2022-10-18T08:31:41;15.75;;;11.48;;
71836;SDS011;59686;51.716;7.016;2022-10-18T08:34:06;21.00;;;13.48;;
71836;SDS011;59686;51.716;7.016;2022-10-18T08:36:32;17.10;;;12.27;;
71836;SDS011;59686;51.716;7.016;2022-10-18T08:38:58;21.13;;;12.57;;
71836;SDS011;59686;51.716;7.016;2022-10-18T08:46:36;19.13;;;12.32;;
71836;SDS011;59686;51.716;7.016;2022-10-18T08:49:05;16.23;;;11.88;;
71836;SDS011;59686;51.716;7.016;2022-10-18T08:51:41;14.75;;;11.02;;
71836;SDS011;59686;51.716;7.016;2022-10-18T08:54:14;15.10;;;9.73;;
71836;SDS011;59686;51.716;7.016;2022-10-18T08:56:49;14.32;;;9.68;;
71836;SDS011;59686;51.716;7.016;2022-10-18T08:59:23;18.40;;;12.70;;
71836;SDS011;59686;51.716;7.016;2022-10-18T09:01:55;19.67;;;12.00;;
71836;SDS011;59686;51.716;7.016;2022-10-18T09:13:30;23.17;;;14.13;;
71836;SDS011;59686;51.716;7.016;2022-10-18T09:16:20;22.10;;;14.27;;
71836;SDS011;59686;51.716;7.016;2022-10-18T09:19:02;19.73;;;13.20;;
71836;SDS011;59686;51.716;7.016;2022-10-18T09:24:24;20.73;;;14.45;;
71836;SDS011;59686;51.716;7.016;2022-10-18T09:27:16;18.10;;;11.98;;
71836;SDS011;59686;51.716;7.016;2022-10-18T09:32:47;20.77;;;12.23;;
71836;SDS011;59686;51.716;7.016;2022-10-18T09:35:24;18.52;;;12.52;;
71836;SDS011;59686;51.716;7.016;2022-10-18T09:38:08;19.52;;;12.32;;
71836;SDS011;59686;51.716;7.016;2022-10-18T09:40:47;16.50;;;11.75;;
71836;SDS011;59686;51.716;7.016;2022-10-18T09:43:41;17.67;;;11.38;;
71836;SDS011;59686;51.716;7.016;2022-10-18T09:46:13;16.25;;;11.32;;
71836;SDS011;59686;51.716;7.016;2022-10-18T09:48:55;20.27;;;12.65;;
71836;SDS011;59686;51.716;7.016;2022-10-18T09:51:35;16.08;;;11.40;;
71836;SDS011;59686;51.716;7.016;2022-10-18T09:54:07;16.27;;;11.30;;
71836;SDS011;59686;51.716;7.016;2022-10-18T09:56:53;15.65;;;11.05;;
71836;SDS011;59686;51.716;7.016;2022-10-18T09:59:36;15.18;;;10.68;;
71836;SDS011;59686;51.716;7.016;2022-10-18T10:02:11;18.65;;;12.02;;
71836;SDS011;59686;51.716;7.016;2022-10-18T10:04:39;18.23;;;12.30;;
71836;SDS011;59686;51.716;7.016;2022-10-18T10:07:06;17.90;;;11.88;;
71836;SDS011;59686;51.716;7.016;2022-10-18T10:09:39;21.27;;;12.05;;
71836;SDS011;59686;51.716;7.016;2022-10-18T10:12:29;18.60;;;12.68;;
71836;SDS011;59686;51.716;7.016;2022-10-18T10:20:49;20.50;;;13.10;;
71836;SDS011;59686;51.716;7.016;2022-10-18T10:23:19;19.73;;;12.90;;
71836;SDS011;59686;51.716;7.016;2022-10-18T10:25:51;19.90;;;13.45;;
71836;SDS011;59686;51.716;7.016;2022-10-18T10:28:21;19.73;;;12.98;;
71836;SDS011;59686;51.716;7.016;2022-10-18T10:30:49;25.85;;;14.38;;
71836;SDS011;59686;51.716;7.016;2022-10-18T10:36:02;20.20;;;12.73;;
71836;SDS011;59686;51.716;7.016;2022-10-18T10:38:40;20.08;;;11.75;;
71836;SDS011;59686;51.716;7.016;2022-10-18T10:41:13;18.23;;;11.70;;
71836;SDS011;59686;51.716;7.016;2022-10-18T10:43:44;25.30;;;13.95;;
71836;SDS011;59686;51.716;7.016;2022-10-18T10:46:14;18.83;;;11.23;;
71836;SDS011;59686;51.716;7.016;2022-10-18T10:48:48;15.45;;;10.63;;
71836;SDS011;59686;51.716;7.016;2022-10-18T10:51:31;16.02;;;11.27;;
71836;SDS011;59686;51.716;7.016;2022-10-18T10:54:01;19.15;;;12.05;;
71836;SDS011;59686;51.716;7.016;2022-10-18T10:56:59;18.58;;;11.60;;
71836;SDS011;59686;51.716;7.016;2022-10-18T10:59:48;17.52;;;10.90;;
71836;SDS011;59686;51.716;7.016;2022-10-18T11:05:14;18.95;;;10.90;;
71836;SDS011;59686;51.716;7.016;2022-10-18T11:07:48;17.58;;;10.77;;
71836;SDS011;59686;51.716;7.016;2022-10-18T11:10:20;17.08;;;9.77;;
71836;SDS011;59686;51.716;7.016;2022-10-18T11:12:52;15.85;;;10.23;;
71836;SDS011;59686;51.716;7.016;2022-10-18T11:15:48;16.10;;;9.65;;
71836;SDS011;59686;51.716;7.016;2022-10-18T11:18:23;17.40;;;10.00;;
71836;SDS011;59686;51.716;7.016;2022-10-18T11:21:02;13.95;;;9.85;;
71836;SDS011;59686;51.716;7.016;2022-10-18T11:23:39;15.40;;;8.85;;
71836;SDS011;59686;51.716;7.016;2022-10-18T11:28:52;16.10;;;8.80;;
71836;SDS011;59686;51.716;7.016;2022-10-18T11:42:34;18.20;;;7.85;;
71836;SDS011;59686;51.716;7.016;2022-10-18T11:45:32;18.05;;;8.48;;
71836;SDS011;59686;51.716;7.016;2022-10-18T11:57:35;16.13;;;6.00;;
71836;SDS011;59686;51.716;7.016;2022-10-18T12:03:13;13.05;;;5.90;;
71836;SDS011;59686;51.716;7.016;2022-10-18T12:05:57;12.68;;;5.97;;
71836;SDS011;59686;51.716;7.016;2022-10-18T12:08:35;11.63;;;5.75;;
71836;SDS011;59686;51.716;7.016;2022-10-18T12:11:12;9.00;;;5.00;;
71836;SDS011;59686;51.716;7.016;2022-10-18T12:13:49;9.77;;;5.07;;
71836;SDS011;59686;51.716;7.016;2022-10-18T12:16:21;9.88;;;5.38;;
71836;SDS011;59686;51.716;7.016;2022-10-18T12:18:52;10.75;;;5.03;;
71836;SDS011;59686;51.716;7.016;2022-10-18T12:21:24;11.65;;;5.00;;
71836;SDS011;59686;51.716;7.016;2022-10-18T12:23:54;10.43;;;4.78;;
71836;SDS011;59686;51.716;7.016;2022-10-18T12:26:22;12.52;;;4.40;;
71836;SDS011;59686;51.716;7.016;2022-10-18T12:31:30;11.07;;;4.57;;
71836;SDS011;59686;51.716;7.016;2022-10-18T12:34:24;9.30;;;4.35;;
71836;SDS011;59686;51.716;7.016;2022-10-18T12:42:31;12.48;;;4.68;;
71836;SDS011;59686;51.716;7.016;2022-10-18T12:47:41;9.75;;;3.85;;
71836;SDS011;59686;51.716;7.016;2022-10-18T12:53:45;6.18;;;3.33;;
71836;SDS011;59686;51.716;7.016;2022-10-18T12:55:52;8.20;;;3.50;;
71836;SDS011;59686;51.716;7.016;2022-10-18T13:08:31;7.50;;;2.88;;
71836;SDS011;59686;51.716;7.016;2022-10-18T13:13:37;6.72;;;2.92;;
71836;SDS011;59686;51.716;7.016;2022-10-18T13:16:12;7.95;;;2.70;;
71836;SDS011;59686;51.716;7.016;2022-10-18T13:24:32;6.38;;;2.65;;
71836;SDS011;59686;51.716;7.016;2022-10-18T13:30:08;4.82;;;2.50;;
71836;SDS011;59686;51.716;7.016;2022-10-18T13:32:48;6.30;;;2.63;;
71836;SDS011;59686;51.716;7.016;2022-10-18T13:41:26;6.15;;;2.17;;
71836;SDS011;59686;51.716;7.016;2022-10-18T13:44:09;7.55;;;2.58;;
71836;SDS011;59686;51.716;7.016;2022-10-18T14:06:35;5.20;;;1.90;;
71836;SDS011;59686;51.716;7.016;2022-10-18T14:23:00;8.00;;;1.98;;
71836;SDS011;59686;51.716;7.016;2022-10-18T14:25:29;12.48;;;2.42;;
71836;SDS011;59686;51.716;7.016;2022-10-18T14:31:05;8.15;;;1.95;;
71836;SDS011;59686;51.716;7.016;2022-10-18T14:36:39;12.45;;;2.30;;
71836;SDS011;59686;51.716;7.016;2022-10-18T14:39:12;9.40;;;2.22;;
71836;SDS011;59686;51.716;7.016;2022-10-18T14:41:59;6.70;;;2.30;;
71836;SDS011;59686;51.716;7.016;2022-10-18T14:44:27;6.07;;;2.20;;
71836;SDS011;59686;51.716;7.016;2022-10-18T14:49:28;9.30;;;1.80;;
71836;SDS011;59686;51.716;7.016;2022-10-18T14:51:58;9.40;;;1.77;;
71836;SDS011;59686;51.716;7.016;2022-10-18T14:54:30;7.88;;;1.90;;
71836;SDS011;59686;51.716;7.016;2022-10-18T14:57:05;4.85;;;1.80;;
71836;SDS011;59686;51.716;7.016;2022-10-18T14:59:49;13.25;;;2.05;;
71836;SDS011;59686;51.716;7.016;2022-10-18T15:02:24;6.45;;;1.77;;
71836;SDS011;59686;51.716;7.016;2022-10-18T15:05:08;3.78;;;1.65;;
71836;SDS011;59686;51.716;7.016;2022-10-18T15:07:44;5.85;;;1.70;;
71836;SDS011;59686;51.716;7.016;2022-10-18T15:10:15;6.20;;;1.83;;
71836;SDS011;59686;51.716;7.016;2022-10-18T15:12:49;8.85;;;1.67;;
71836;SDS011;59686;51.716;7.016;2022-10-18T15:15:19;5.18;;;1.52;;
71836;SDS011;59686;51.716;7.016;2022-10-18T15:17:51;5.32;;;1.77;;
71836;SDS011;59686;51.716;7.016;2022-10-18T15:20:28;4.45;;;1.70;;
71836;SDS011;59686;51.716;7.016;2022-10-18T15:25:43;4.82;;;1.48;;
71836;SDS011;59686;51.716;7.016;2022-10-18T15:28:15;4.53;;;1.70;;
71836;SDS011;59686;51.716;7.016;2022-10-18T15:30:55;4.20;;;1.58;;
71836;SDS011;59686;51.716;7.016;2022-10-18T15:33:23;3.80;;;1.40;;
71836;SDS011;59686;51.716;7.016;2022-10-18T15:35:51;5.82;;;1.40;;
71836;SDS011;59686;51.716;7.016;2022-10-18T15:40:55;8.20;;;1.88;;
71836;SDS011;59686;51.716;7.016;2022-10-18T15:50:46;6.53;;;1.70;;
71836;SDS011;59686;51.716;7.016;2022-10-18T15:56:08;4.50;;;1.60;;
71836;SDS011;59686;51.716;7.016;2022-10-18T15:58:47;8.43;;;1.92;;
71836;SDS011;59686;51.716;7.016;2022-10-18T16:03:41;5.15;;;1.45;;
71836;SDS011;59686;51.716;7.016;2022-10-18T16:06:09;4.60;;;1.85;;
71836;SDS011;59686;51.716;7.016;2022-10-18T16:08:37;7.43;;;1.85;;
71836;SDS011;59686;51.716;7.016;2022-10-18T16:11:06;4.43;;;1.60;;
71836;SDS011;59686;51.716;7.016;2022-10-18T16:13:40;7.43;;;1.80;;
71836;SDS011;59686;51.716;7.016;2022-10-18T16:16:06;4.57;;;1.58;;
71836;SDS011;59686;51.716;7.016;2022-10-18T16:18:42;4.43;;;1.55;;
71836;SDS011;59686;51.716;7.016;2022-10-18T16:21:29;4.47;;;1.65;;
71836;SDS011;59686;51.716;7.016;2022-10-18T16:24:06;5.65;;;1.70;;
71836;SDS011;59686;51.716;7.016;2022-10-18T16:26:32;4.80;;;1.55;;
71836;SDS011;59686;51.716;7.016;2022-10-18T16:28:58;4.35;;;1.40;;
71836;SDS011;59686;51.716;7.016;2022-10-18T16:31:29;3.42;;;1.60;;
71836;SDS011;59686;51.716;7.016;2022-10-18T16:33:56;5.80;;;1.48;;
71836;SDS011;59686;51.716;7.016;2022-10-18T16:36:26;6.78;;;1.42;;
71836;SDS011;59686;51.716;7.016;2022-10-18T16:38:55;3.28;;;1.70;;
71836;SDS011;59686;51.716;7.016;2022-10-18T16:41:22;2.20;;;1.10;;
71836;SDS011;59686;51.716;7.016;2022-10-18T16:43:48;3.83;;;1.45;;
71836;SDS011;59686;51.716;7.016;2022-10-18T16:46:16;5.40;;;1.50;;
71836;SDS011;59686;51.716;7.016;2022-10-18T16:48:43;4.85;;;1.52;;
71836;SDS011;59686;51.716;7.016;2022-10-18T16:51:10;3.25;;;1.27;;
71836;SDS011;59686;51.716;7.016;2022-10-18T16:53:35;4.43;;;1.58;;
71836;SDS011;59686;51.716;7.016;2022-10-18T16:56:02;3.78;;;1.50;;
71836;SDS011;59686;51.716;7.016;2022-10-18T16:58:29;4.05;;;1.70;;
71836;SDS011;59686;51.716;7.016;2022-10-18T17:00:56;4.78;;;1.50;;
71836;SDS011;59686;51.716;7.016;2022-10-18T17:03:23;4.25;;;1.90;;
71836;SDS011;59686;51.716;7.016;2022-10-18T17:05:49;5.38;;;1.40;;
71836;SDS011;59686;51.716;7.016;2022-10-18T17:08:19;6.28;;;1.83;;
71836;SDS011;59686;51.716;7.016;2022-10-18T17:10:49;7.85;;;1.73;;
71836;SDS011;59686;51.716;7.016;2022-10-18T17:13:17;4.07;;;1.52;;
71836;SDS011;59686;51.716;7.016;2022-10-18T17:15:43;4.13;;;1.30;;
71836;SDS011;59686;51.716;7.016;2022-10-18T17:18:14;4.15;;;1.60;;
71836;SDS011;59686;51.716;7.016;2022-10-18T17:20:43;3.35;;;1.60;;
71836;SDS011;59686;51.716;7.016;2022-10-18T17:23:09;3.22;;;1.98;;
71836;SDS011;59686;51.716;7.016;2022-10-18T17:25:35;3.13;;;1.40;;
71836;SDS011;59686;51.716;7.016;2022-10-18T17:28:02;5.30;;;1.60;;
71836;SDS011;59686;51.716;7.016;2022-10-18T17:30:28;5.07;;;1.73;;
71836;SDS011;59686;51.716;7.016;2022-10-18T17:32:54;5.95;;;1.80;;
71836;SDS011;59686;51.716;7.016;2022-10-18T17:35:20;3.42;;;1.52;;
71836;SDS011;59686;51.716;7.016;2022-10-18T17:37:46;2.90;;;1.52;;
71836;SDS011;59686;51.716;7.016;2022-10-18T17:40:13;4.88;;;1.60;;
71836;SDS011;59686;51.716;7.016;2022-10-18T17:42:38;3.53;;;1.80;;
71836;SDS011;59686;51.716;7.016;2022-10-18T17:45:04;5.43;;;1.98;;
71836;SDS011;59686;51.716;7.016;2022-10-18T17:47:30;4.97;;;1.85;;
71836;SDS011;59686;51.716;7.016;2022-10-18T17:49:56;4.70;;;1.73;;
71836;SDS011;59686;51.716;7.016;2022-10-18T17:52:22;3.03;;;1.85;;
71836;SDS011;59686;51.716;7.016;2022-10-18T17:54:47;4.30;;;1.95;;
71836;SDS011;59686;51.716;7.016;2022-10-18T17:57:13;3.72;;;1.90;;
71836;SDS011;59686;51.716;7.016;2022-10-18T17:59:40;4.70;;;1.80;;
71836;SDS011;59686;51.716;7.016;2022-10-18T18:02:06;3.95;;;2.10;;
71836;SDS011;59686;51.716;7.016;2022-10-18T18:04:33;3.75;;;1.83;;
71836;SDS011;59686;51.716;7.016;2022-10-18T18:07:02;3.63;;;1.95;;
71836;SDS011;59686;51.716;7.016;2022-10-18T18:09:28;3.78;;;1.98;;
71836;SDS011;59686;51.716;7.016;2022-10-18T18:11:55;4.13;;;2.05;;
71836;SDS011;59686;51.716;7.016;2022-10-18T18:14:22;6.28;;;2.22;;
71836;SDS011;59686;51.716;7.016;2022-10-18T18:16:48;4.97;;;2.28;;
71836;SDS011;59686;51.716;7.016;2022-10-18T18:19:14;2.95;;;2.30;;